Time;durP1;ratioP1;P1;durP2;ratioP2;P2;SDS_P1;SDS_P2;PMS_P1;PMS_P2;Temp;Humidity;BMP_temperature;BMP_pressure;BME280_temperature;BME280_humidity;BME280_pressure;Samples;Min_cycle;Max_cycle;Signal;HPM_P1;HPM_P2
2022/04/28 00:00:57;;;;;;;9.07;3.80;;;7.70;99.90;;;;;;5115170;28;20040;-72
2022/04/28 00:03:23;;;;;;;14.68;4.10;;;7.70;99.90;;;;;;5115315;28;20046;-72
2022/04/28 00:05:49;;;;;;;13.10;3.92;;;7.70;99.90;;;;;;5115347;28;20527;-72
2022/04/28 00:08:15;;;;;;;10.07;3.53;;;7.60;99.90;;;;;;5114997;28;20487;-72
2022/04/28 00:10:40;;;;;;;11.70;4.10;;;7.60;99.90;;;;;;5114890;28;20085;-72
2022/04/28 00:13:09;;;;;;;12.20;4.10;;;7.60;99.90;;;;;;5114829;28;20044;-72
2022/04/28 00:15:34;;;;;;;8.93;3.67;;;7.60;99.90;;;;;;5114900;28;20043;-72
2022/04/28 00:18:00;;;;;;;12.05;3.78;;;7.60;99.90;;;;;;5097863;28;20388;-72
2022/04/28 00:20:26;;;;;;;12.43;3.92;;;7.60;99.90;;;;;;5114836;28;20039;-72
2022/04/28 00:22:51;;;;;;;10.98;4.07;;;7.50;99.90;;;;;;5116574;28;20088;-72
2022/04/28 00:25:17;;;;;;;8.23;3.58;;;7.60;99.90;;;;;;5114602;28;20035;-72
2022/04/28 00:27:43;;;;;;;10.77;3.63;;;7.60;99.90;;;;;;5114675;28;20032;-72
2022/04/28 00:30:09;;;;;;;13.38;4.22;;;7.60;99.90;;;;;;5114527;28;20552;-72
2022/04/28 00:32:35;;;;;;;11.02;3.88;;;7.60;99.90;;;;;;5114586;28;20043;-72
2022/04/28 00:35:01;;;;;;;11.60;3.75;;;7.60;99.90;;;;;;5114448;28;20027;-72
2022/04/28 00:37:26;;;;;;;8.20;3.45;;;7.60;99.90;;;;;;5114631;28;20089;-72
2022/04/28 00:39:53;;;;;;;9.95;3.80;;;7.70;99.90;;;;;;5114413;28;20075;-72
2022/04/28 00:42:19;;;;;;;8.02;3.30;;;7.60;99.90;;;;;;5114627;28;20040;-72
2022/04/28 00:44:46;;;;;;;10.55;3.78;;;7.60;99.90;;;;;;5114191;28;20487;-72
2022/04/28 00:47:12;;;;;;;11.00;4.30;;;7.60;99.90;;;;;;5114526;28;20133;-72
2022/04/28 00:52:24;;;;;;;8.90;3.55;;;7.60;99.90;;;;;;5114163;28;20498;-72
2022/04/28 00:54:54;;;;;;;9.80;3.60;;;7.60;99.90;;;;;;5114016;28;20043;-72
2022/04/28 00:57:21;;;;;;;10.80;3.92;;;7.70;99.90;;;;;;5114109;28;20058;-72
2022/04/28 00:59:48;;;;;;;9.13;4.15;;;7.70;99.90;;;;;;5114013;28;20039;-72
2022/04/28 01:02:16;;;;;;;8.43;3.53;;;7.70;99.90;;;;;;5113987;28;20040;-72
2022/04/28 01:04:42;;;;;;;8.35;2.85;;;7.70;99.90;;;;;;5113885;28;20039;-72
2022/04/28 01:07:08;;;;;;;11.55;3.70;;;7.80;99.90;;;;;;5113871;28;20036;-72
2022/04/28 01:09:37;;;;;;;12.90;3.05;;;7.80;99.90;;;;;;5113755;28;20128;-72
2022/04/28 01:12:08;;;;;;;12.00;3.75;;;7.80;99.90;;;;;;5114074;28;20117;-72
2022/04/28 01:14:33;;;;;;;10.05;3.08;;;7.90;99.90;;;;;;5113953;28;20114;-72
2022/04/28 01:17:00;;;;;;;13.20;3.55;;;7.90;99.90;;;;;;5096652;28;20560;-72
2022/04/28 01:19:26;;;;;;;11.40;3.55;;;8.00;99.90;;;;;;5113629;28;20411;-72
2022/04/28 01:21:52;;;;;;;10.52;3.17;;;8.00;99.90;;;;;;5113604;28;20036;-72
2022/04/28 01:24:18;;;;;;;12.52;3.33;;;8.10;99.90;;;;;;5113457;28;20032;-72
2022/04/28 01:26:44;;;;;;;10.57;3.25;;;8.10;99.90;;;;;;5113466;28;20046;-72
2022/04/28 01:29:10;;;;;;;8.25;2.60;;;8.10;99.90;;;;;;5113685;28;20039;-72
2022/04/28 01:31:35;;;;;;;11.00;3.17;;;8.10;99.90;;;;;;5113273;28;20088;-72
2022/04/28 01:34:01;;;;;;;15.02;3.92;;;8.20;99.90;;;;;;5113278;28;20410;-72
2022/04/28 01:36:27;;;;;;;12.55;3.03;;;8.20;99.90;;;;;;5096320;28;20039;-72
2022/04/28 01:38:53;;;;;;;10.25;3.17;;;8.20;99.90;;;;;;5113484;28;20075;-72
2022/04/28 01:41:19;;;;;;;11.95;3.22;;;8.20;99.90;;;;;;5113453;28;20426;-72
2022/04/28 01:43:45;;;;;;;9.80;3.28;;;8.20;99.90;;;;;;5113319;28;20449;-72
2022/04/28 01:46:11;;;;;;;10.20;2.78;;;8.20;99.90;;;;;;5113149;28;20082;-72
2022/04/28 01:48:37;;;;;;;9.52;2.88;;;8.20;99.90;;;;;;5113330;28;20040;-72
2022/04/28 01:56:31;;;;;;;9.90;2.88;;;8.20;99.90;;;;;;5112722;28;20044;-72
2022/04/28 01:58:56;;;;;;;11.02;3.22;;;8.30;99.90;;;;;;5095901;28;20551;-72
2022/04/28 02:01:22;;;;;;;11.45;3.35;;;8.30;99.90;;;;;;5112848;28;20044;-72
2022/04/28 02:03:48;;;;;;;11.20;3.22;;;8.30;99.90;;;;;;5112787;28;20054;-72
2022/04/28 02:06:14;;;;;;;9.48;3.30;;;8.30;99.90;;;;;;5095768;28;20039;-72
2022/04/28 02:08:39;;;;;;;7.45;3.05;;;8.30;99.90;;;;;;5112700;28;20047;-72
2022/04/28 02:11:06;;;;;;;10.07;3.80;;;8.20;99.90;;;;;;5112607;28;20031;-72
2022/04/28 02:13:31;;;;;;;12.05;3.20;;;8.20;99.90;;;;;;5095585;28;20046;-72
2022/04/28 02:15:57;;;;;;;9.98;3.50;;;8.30;99.90;;;;;;5112619;28;20035;-72
2022/04/28 02:18:23;;;;;;;13.35;3.38;;;8.30;99.90;;;;;;5112841;28;20040;-72
2022/04/28 02:20:48;;;;;;;10.38;3.47;;;8.30;99.90;;;;;;5112816;28;20054;-72
2022/04/28 02:23:14;;;;;;;9.70;2.92;;;8.30;99.90;;;;;;5112444;28;20043;-72
2022/04/28 02:25:40;;;;;;;6.97;2.72;;;8.30;99.90;;;;;;5112515;28;20048;-72
2022/04/28 02:28:05;;;;;;;11.02;2.90;;;8.30;99.90;;;;;;5112466;28;20042;-72
2022/04/28 02:30:31;;;;;;;10.23;2.75;;;8.40;99.90;;;;;;5095364;28;20043;-72
2022/04/28 02:33:09;;;;;;;10.70;3.20;;;8.40;99.90;;;;;;5112638;28;20051;-72
2022/04/28 02:35:35;;;;;;;9.48;2.70;;;8.40;99.90;;;;;;5112725;28;20109;-72
2022/04/28 02:38:00;;;;;;;10.35;3.20;;;8.40;99.90;;;;;;5112329;28;20483;-72
2022/04/28 02:40:26;;;;;;;12.10;3.00;;;8.40;99.90;;;;;;5112558;28;20097;-72
2022/04/28 02:42:52;;;;;;;9.20;2.72;;;8.40;99.90;;;;;;5112265;28;20040;-72
2022/04/28 02:45:17;;;;;;;8.93;3.42;;;8.40;99.90;;;;;;5112452;28;20047;-72
2022/04/28 02:47:43;;;;;;;9.75;3.38;;;8.40;99.90;;;;;;5112504;28;20561;-72
2022/04/28 02:50:11;;;;;;;9.18;3.20;;;8.40;99.90;;;;;;5112165;28;20044;-72
2022/04/28 02:52:38;;;;;;;10.45;3.45;;;8.40;99.90;;;;;;5113055;28;20071;-72
2022/04/28 02:55:04;;;;;;;9.93;3.03;;;8.40;99.90;;;;;;5111969;28;20035;-72
2022/04/28 02:57:30;;;;;;;6.45;2.78;;;8.40;99.90;;;;;;5112139;28;20035;-72
2022/04/28 02:59:57;;;;;;;9.70;3.05;;;8.40;99.90;;;;;;5112112;28;20039;-72
2022/04/28 03:02:23;;;;;;;8.05;3.10;;;8.40;99.90;;;;;;5095178;28;20050;-72
2022/04/28 03:04:49;;;;;;;8.43;2.97;;;8.40;99.90;;;;;;5111994;28;20119;-72
2022/04/28 03:12:44;;;;;;;8.45;2.70;;;8.40;99.90;;;;;;5116098;28;20048;-72
2022/04/28 03:15:11;;;;;;;11.55;2.60;;;8.50;99.90;;;;;;5116255;28;20122;-72
2022/04/28 03:17:36;;;;;;;9.65;2.83;;;8.40;99.90;;;;;;5116024;28;20042;-72
2022/04/28 03:20:03;;;;;;;10.00;2.60;;;8.50;99.90;;;;;;5115930;28;20043;-72
2022/04/28 03:22:29;;;;;;;12.05;2.55;;;8.50;99.90;;;;;;5115931;28;20047;-72
2022/04/28 03:24:55;;;;;;;6.22;2.15;;;8.50;99.90;;;;;;5116069;28;20050;-72
2022/04/28 03:27:21;;;;;;;8.93;2.47;;;8.50;99.90;;;;;;5115798;28;20040;-72
2022/04/28 03:29:46;;;;;;;12.23;3.17;;;8.50;99.90;;;;;;5115718;28;20122;-72
2022/04/28 03:32:12;;;;;;;10.73;2.60;;;8.50;99.90;;;;;;5115744;28;20162;-72
2022/04/28 03:34:37;;;;;;;8.18;2.47;;;8.50;99.90;;;;;;5115620;28;20036;-72
2022/04/28 03:37:03;;;;;;;8.05;2.30;;;8.60;99.90;;;;;;5115667;28;20043;-72
2022/04/28 03:39:29;;;;;;;9.95;3.20;;;8.60;99.90;;;;;;5115616;28;20035;-72
2022/04/28 03:41:54;;;;;;;8.18;2.60;;;8.60;99.90;;;;;;5098553;28;20035;-72
2022/04/28 03:44:20;;;;;;;10.10;2.65;;;8.60;99.90;;;;;;5115674;28;20046;-72
2022/04/28 03:46:46;;;;;;;11.82;3.20;;;8.60;99.90;;;;;;5115462;28;20507;-72
2022/04/28 03:49:12;;;;;;;8.15;2.60;;;8.60;99.90;;;;;;5115677;28;20035;-72
2022/04/28 03:51:37;;;;;;;6.82;2.25;;;8.60;99.90;;;;;;5115290;28;20519;-72
2022/04/28 03:54:03;;;;;;;10.75;2.78;;;8.60;99.90;;;;;;5098492;28;20066;-72
2022/04/28 03:56:31;;;;;;;7.63;2.38;;;8.60;99.90;;;;;;5115301;28;20482;-72
2022/04/28 03:59:01;;;;;;;7.65;1.95;;;8.60;99.90;;;;;;5115256;28;20046;-72
2022/04/28 04:01:27;;;;;;;12.40;2.85;;;8.60;99.90;;;;;;5115196;28;20047;-72
2022/04/28 04:03:53;;;;;;;10.35;3.17;;;8.60;99.90;;;;;;5115339;28;20563;-72
2022/04/28 04:06:19;;;;;;;7.32;2.55;;;8.60;99.90;;;;;;5098128;28;20070;-72
2022/04/28 04:08:45;;;;;;;7.75;2.75;;;8.60;99.90;;;;;;5098063;28;20067;-72
2022/04/28 04:11:12;;;;;;;8.57;3.03;;;8.60;99.90;;;;;;5097917;28;20032;-72
2022/04/28 04:13:38;;;;;;;7.93;2.45;;;8.70;99.90;;;;;;5114885;28;20047;-72
2022/04/28 04:16:04;;;;;;;11.07;3.05;;;8.70;99.90;;;;;;5114908;28;20042;-72
2022/04/28 04:18:30;;;;;;;11.98;2.30;;;8.60;99.90;;;;;;5114460;28;20042;-72
2022/04/28 04:20:56;;;;;;;9.98;2.80;;;8.60;99.90;;;;;;5114759;28;20036;-72
2022/04/28 04:23:21;;;;;;;11.50;2.50;;;8.60;99.90;;;;;;5114711;28;20043;-72
2022/04/28 04:25:47;;;;;;;7.15;2.47;;;8.60;99.90;;;;;;5114777;28;20040;-72
2022/04/28 04:28:12;;;;;;;10.70;2.53;;;8.60;99.90;;;;;;5114892;28;20088;-72
2022/04/28 04:33:22;;;;;;;7.80;2.78;;;8.60;99.90;;;;;;5114520;28;20043;-72
2022/04/28 04:35:48;;;;;;;11.23;2.85;;;8.60;99.90;;;;;;5114505;28;20040;-72
2022/04/28 04:38:13;;;;;;;9.23;3.03;;;8.60;99.90;;;;;;5114449;28;20036;-72
2022/04/28 04:40:39;;;;;;;10.23;3.10;;;8.60;99.90;;;;;;5097720;28;20043;-72
2022/04/28 04:43:09;;;;;;;10.55;2.83;;;8.60;99.90;;;;;;5114611;28;20491;-72
2022/04/28 04:45:34;;;;;;;13.30;2.85;;;8.60;99.90;;;;;;5114291;28;20082;-72
2022/04/28 04:48:00;;;;;;;8.82;3.20;;;8.60;99.90;;;;;;5114284;28;20078;-72
2022/04/28 04:50:26;;;;;;;10.85;3.50;;;8.70;99.90;;;;;;5114353;28;20122;-72
2022/04/28 04:52:51;;;;;;;9.68;3.20;;;8.70;99.90;;;;;;5114407;28;20509;-72
2022/04/28 04:55:17;;;;;;;8.07;2.95;;;8.70;99.90;;;;;;5096991;28;20546;-72
2022/04/28 04:57:43;;;;;;;8.77;3.15;;;8.70;99.90;;;;;;5114142;28;20035;-72
2022/04/28 05:00:09;;;;;;;10.20;3.28;;;8.70;99.90;;;;;;5097085;28;20039;-72
2022/04/28 05:02:34;;;;;;;12.35;3.50;;;8.70;99.90;;;;;;5114238;28;20040;-72
2022/04/28 05:05:00;;;;;;;10.02;3.03;;;8.70;99.90;;;;;;5113876;28;20092;-72
2022/04/28 05:07:30;;;;;;;12.27;3.30;;;8.70;99.90;;;;;;5113873;28;20122;-72
2022/04/28 05:09:55;;;;;;;11.40;3.30;;;8.80;99.90;;;;;;5113698;28;20032;-72
2022/04/28 05:12:21;;;;;;;14.38;3.65;;;8.80;99.90;;;;;;5113791;28;20059;-72
2022/04/28 05:14:47;;;;;;;10.93;2.60;;;8.80;99.90;;;;;;5113932;28;20038;-72
2022/04/28 05:17:13;;;;;;;12.02;3.38;;;8.80;99.90;;;;;;5113801;28;20130;-72
2022/04/28 05:19:38;;;;;;;15.32;3.80;;;8.90;99.90;;;;;;5113635;28;20035;-72
2022/04/28 05:22:04;;;;;;;15.27;3.42;;;8.90;99.90;;;;;;5113781;28;20047;-72
2022/04/28 05:24:29;;;;;;;12.60;3.10;;;8.90;99.90;;;;;;5113559;28;20057;-72
2022/04/28 05:26:55;;;;;;;10.18;2.95;;;8.90;99.90;;;;;;5113468;28;20035;-72
2022/04/28 05:29:20;;;;;;;15.18;3.72;;;9.00;99.90;;;;;;5113052;28;20034;-72
2022/04/28 05:31:46;;;;;;;9.93;3.15;;;9.00;99.90;;;;;;5112951;28;20100;-72
2022/04/28 05:34:11;;;;;;;11.55;3.22;;;9.10;99.90;;;;;;5113549;28;20046;-72
2022/04/28 05:36:39;;;;;;;13.43;3.20;;;9.10;99.90;;;;;;5113301;28;20043;-72
2022/04/28 05:39:05;;;;;;;14.55;3.28;;;9.10;99.90;;;;;;5113495;28;20507;-72
2022/04/28 05:41:32;;;;;;;10.45;2.80;;;9.10;99.90;;;;;;5096256;28;20035;-72
2022/04/28 05:46:42;;;;;;;10.32;3.10;;;9.10;99.90;;;;;;5113159;28;20051;-72
2022/04/28 05:49:08;;;;;;;12.02;3.15;;;9.20;99.90;;;;;;5113059;28;20122;-72
2022/04/28 05:51:34;;;;;;;15.25;3.13;;;9.20;99.90;;;;;;5113031;28;20114;-72
2022/04/28 05:54:00;;;;;;;7.65;2.97;;;9.20;99.90;;;;;;5112813;28;20036;-71
2022/04/28 05:56:26;;;;;;;7.60;3.05;;;9.20;99.90;;;;;;5120475;22;20043;-69
2022/04/28 05:58:52;;;;;;;13.40;2.85;;;9.10;99.90;;;;;;5092598;28;20044;-69
2022/04/28 06:01:18;;;;;;;12.75;3.53;;;9.20;99.90;;;;;;5092579;28;20544;-69
2022/04/28 06:03:44;;;;;;;9.52;3.15;;;9.20;99.90;;;;;;5109510;28;20040;-69
2022/04/28 06:06:10;;;;;;;9.27;2.88;;;9.20;99.90;;;;;;5092411;28;20043;-70
2022/04/28 06:08:36;;;;;;;8.93;2.97;;;9.20;99.90;;;;;;5092455;28;20127;-70
2022/04/28 06:11:02;;;;;;;12.32;3.28;;;9.20;99.90;;;;;;5075507;28;20040;-70
2022/04/28 06:13:29;;;;;;;10.50;2.90;;;9.20;99.90;;;;;;5075744;28;20043;-70
2022/04/28 06:15:56;;;;;;;11.40;3.17;;;9.20;99.90;;;;;;5075359;28;20399;-70
2022/04/28 06:18:22;;;;;;;12.35;3.70;;;9.30;99.90;;;;;;5092541;28;20098;-70
2022/04/28 06:20:48;;;;;;;11.85;3.25;;;9.30;99.90;;;;;;5092352;28;20051;-70
2022/04/28 06:23:13;;;;;;;11.60;2.90;;;9.30;99.90;;;;;;5092222;28;20044;-70
2022/04/28 06:25:40;;;;;;;9.05;3.20;;;9.30;99.90;;;;;;5092062;28;20043;-70
2022/04/28 06:28:06;;;;;;;12.70;3.30;;;9.30;99.90;;;;;;5092181;28;20044;-70
2022/04/28 06:30:32;;;;;;;9.50;3.67;;;9.40;99.90;;;;;;5092045;28;20507;-70
2022/04/28 06:32:58;;;;;;;12.43;3.97;;;9.40;99.90;;;;;;5092386;28;20043;-70
2022/04/28 06:35:23;;;;;;;10.65;3.47;;;9.40;99.90;;;;;;5092016;28;20040;-70
2022/04/28 06:37:49;;;;;;;11.70;3.70;;;9.50;99.90;;;;;;5092294;28;20051;-71
2022/04/28 06:40:14;;;;;;;9.63;3.83;;;9.50;99.90;;;;;;5092022;28;20487;-70
2022/04/28 06:42:43;;;;;;;14.27;4.22;;;9.60;99.90;;;;;;5091889;28;20040;-70
2022/04/28 06:45:10;;;;;;;16.08;4.03;;;9.70;99.90;;;;;;5091952;28;20040;-70
2022/04/28 06:47:36;;;;;;;13.32;3.78;;;9.80;99.90;;;;;;5091927;28;20510;-71
2022/04/28 06:50:02;;;;;;;9.23;3.35;;;9.90;99.90;;;;;;5091861;28;20044;-70
2022/04/28 06:52:28;;;;;;;14.20;4.00;;;10.00;99.90;;;;;;5075066;28;20032;-70
2022/04/28 06:54:53;;;;;;;15.32;3.08;;;10.20;99.90;;;;;;5091731;28;20036;-70
2022/04/28 06:57:19;;;;;;;9.55;2.72;;;10.30;99.90;;;;;;5091981;28;20040;-70
2022/04/28 06:59:44;;;;;;;13.07;3.88;;;10.40;99.90;;;;;;5091809;28;20119;-70
2022/04/28 07:02:10;;;;;;;11.35;2.95;;;10.40;99.90;;;;;;5092101;28;20039;-70
2022/04/28 07:04:36;;;;;;;10.82;2.40;;;10.50;99.90;;;;;;5091999;28;20480;-70
2022/04/28 07:07:01;;;;;;;10.05;2.80;;;10.60;99.90;;;;;;5091794;28;20438;-70
2022/04/28 07:09:27;;;;;;;14.65;2.63;;;10.70;99.90;;;;;;5091743;28;20066;-70
2022/04/28 07:11:52;;;;;;;9.75;2.33;;;10.80;99.90;;;;;;5091651;28;20032;-70
2022/04/28 07:14:18;;;;;;;9.32;2.28;;;10.80;99.90;;;;;;5091713;28;20039;-70
2022/04/28 07:16:43;;;;;;;12.82;2.15;;;10.90;99.90;;;;;;5091690;28;20082;-70
2022/04/28 07:19:09;;;;;;;9.93;2.28;;;11.00;99.90;;;;;;5091618;28;20036;-70
2022/04/28 07:21:35;;;;;;;8.20;2.38;;;11.10;99.90;;;;;;5091634;28;20039;-70
2022/04/28 07:24:01;;;;;;;10.23;2.13;;;11.10;99.90;;;;;;5091586;28;20044;-70
2022/04/28 07:26:28;;;;;;;10.48;1.90;;;11.10;99.90;;;;;;5091508;28;20038;-70
2022/04/28 07:28:54;;;;;;;7.88;2.42;;;11.10;99.90;;;;;;5091513;28;20082;-70
2022/04/28 07:31:19;;;;;;;7.88;2.00;;;11.00;99.90;;;;;;5074649;28;20093;-70
2022/04/28 07:33:45;;;;;;;8.20;2.20;;;10.90;99.90;;;;;;5091540;28;20040;-70
2022/04/28 07:36:12;;;;;;;9.05;2.17;;;10.90;99.90;;;;;;5091669;28;20036;-70
2022/04/28 07:38:38;;;;;;;9.52;2.50;;;10.90;99.90;;;;;;5091486;28;20044;-70
2022/04/28 07:41:07;;;;;;;10.25;2.40;;;10.80;99.90;;;;;;5074606;28;20047;-70
2022/04/28 07:43:32;;;;;;;10.60;2.35;;;10.80;99.90;;;;;;5091408;28;20040;-70
2022/04/28 07:45:58;;;;;;;8.30;1.98;;;10.80;99.90;;;;;;5091567;28;20399;-71
2022/04/28 07:48:26;;;;;;;9.38;2.03;;;10.80;99.90;;;;;;5091452;28;20491;-70
2022/04/28 07:50:52;;;;;;;8.90;2.13;;;10.80;99.90;;;;;;5091277;28;20088;-70
2022/04/28 07:53:18;;;;;;;7.72;2.55;;;10.80;99.90;;;;;;5075346;28;20032;-70
2022/04/28 07:55:43;;;;;;;13.20;3.03;;;10.80;99.90;;;;;;5077900;28;20036;-71
2022/04/28 07:58:09;;;;;;;10.15;2.05;;;10.80;99.90;;;;;;5094933;28;20036;-71
2022/04/28 08:00:34;;;;;;;6.25;1.92;;;10.90;99.90;;;;;;5094871;28;20055;-70
2022/04/28 08:03:00;;;;;;;8.95;1.80;;;11.00;99.90;;;;;;5095071;28;20128;-70
2022/04/28 08:05:26;;;;;;;5.32;1.88;;;11.00;99.90;;;;;;5094756;28;20149;-70
2022/04/28 08:07:51;;;;;;;7.88;2.28;;;11.10;99.90;;;;;;5077841;28;20131;-70
2022/04/28 08:10:17;;;;;;;10.65;2.30;;;11.10;99.90;;;;;;5077757;28;20043;-70
2022/04/28 08:12:43;;;;;;;8.27;2.38;;;11.20;99.90;;;;;;5077836;28;20040;-70
2022/04/28 08:15:08;;;;;;;10.65;2.80;;;11.30;99.90;;;;;;5077962;28;20036;-70
2022/04/28 08:17:34;;;;;;;8.38;2.10;;;11.30;99.90;;;;;;5077599;28;20040;-71
2022/04/28 08:20:00;;;;;;;6.82;1.85;;;11.40;99.90;;;;;;5094530;28;20046;-70
2022/04/28 08:22:25;;;;;;;7.47;1.80;;;11.40;99.90;;;;;;5077615;28;20075;-70
2022/04/28 08:24:51;;;;;;;7.78;1.70;;;11.40;99.90;;;;;;5094602;28;20047;-71
2022/04/28 08:27:16;;;;;;;7.07;1.63;;;11.50;99.90;;;;;;5094352;28;20505;-71
2022/04/28 08:29:42;;;;;;;10.50;2.17;;;11.50;99.90;;;;;;5094233;28;20040;-70
2022/04/28 08:32:08;;;;;;;13.98;2.28;;;11.60;99.90;;;;;;5077428;28;20048;-70
2022/04/28 08:34:33;;;;;;;8.02;2.70;;;11.70;99.90;;;;;;5094380;28;20109;-71
2022/04/28 08:36:59;;;;;;;7.72;2.25;;;11.80;99.90;;;;;;5094447;28;20506;-70
2022/04/28 08:39:25;;;;;;;8.18;1.58;;;11.90;99.90;;;;;;5094151;28;20419;-71
2022/04/28 08:41:53;;;;;;;10.50;2.17;;;12.10;99.90;;;;;;5094105;28;20078;-70
2022/04/28 08:44:20;;;;;;;9.85;2.45;;;12.20;99.90;;;;;;5094272;28;20044;-70
2022/04/28 08:46:52;;;;;;;6.20;1.85;;;12.30;99.90;;;;;;5093971;28;20051;-70
2022/04/28 08:49:29;;;;;;;8.13;2.20;;;12.30;99.90;;;;;;5093956;28;20411;-70
2022/04/28 08:51:57;;;;;;;9.88;1.80;;;12.40;99.90;;;;;;5093841;28;20063;-70
2022/04/28 08:54:26;;;;;;;9.40;1.88;;;12.50;99.90;;;;;;5093641;28;20051;-71
2022/04/28 08:56:56;;;;;;;9.88;1.83;;;12.60;99.90;;;;;;5094064;28;20124;-71
2022/04/28 08:59:23;;;;;;;7.20;1.77;;;12.70;99.90;;;;;;5093828;28;20044;-70
2022/04/28 09:01:52;;;;;;;7.70;2.38;;;12.80;99.90;;;;;;5093637;28;20040;-70
2022/04/28 09:04:19;;;;;;;8.95;1.77;;;12.70;99.90;;;;;;5076060;28;20400;-70
2022/04/28 09:06:48;;;;;;;10.68;2.45;;;12.70;99.90;;;;;;5076268;28;20085;-70
2022/04/28 09:09:15;;;;;;;9.25;2.03;;;12.90;99.90;;;;;;5093524;28;20050;-70
2022/04/28 09:11:42;;;;;;;7.32;1.70;;;13.30;99.90;;;;;;5093488;28;20173;-70
2022/04/28 09:14:15;;;;;;;5.30;1.45;;;13.50;99.90;;;;;;5093426;28;20040;-70
2022/04/28 09:16:57;;;;;;;8.23;1.70;;;13.90;98.50;;;;;;5093615;28;20573;-70
2022/04/28 09:19:27;;;;;;;8.35;1.75;;;14.20;97.00;;;;;;5093405;28;20043;-70
2022/04/28 09:22:04;;;;;;;7.20;1.77;;;14.30;96.10;;;;;;5076420;28;20040;-70
2022/04/28 09:24:30;;;;;;;8.32;1.60;;;14.50;94.60;;;;;;5093193;28;20047;-70
2022/04/28 09:26:56;;;;;;;6.93;1.52;;;14.70;94.00;;;;;;5093188;28;20044;-70
2022/04/28 09:29:25;;;;;;;8.48;1.80;;;14.70;93.20;;;;;;5093439;28;20059;-70
2022/04/28 09:31:52;;;;;;;11.05;1.70;;;14.70;92.40;;;;;;5093071;28;20063;-70
2022/04/28 09:34:21;;;;;;;8.63;1.70;;;14.70;92.50;;;;;;5076119;28;20068;-70
2022/04/28 09:36:47;;;;;;;7.78;1.80;;;14.60;93.60;;;;;;5092994;28;20488;-70
2022/04/28 09:42:29;;;;;;;7.30;1.67;;;14.50;93.90;;;;;;5093238;28;20148;-70
2022/04/28 09:44:55;;;;;;;7.80;2.10;;;14.30;94.30;;;;;;5092728;28;20040;-70
2022/04/28 09:47:23;;;;;;;5.30;1.65;;;14.40;94.90;;;;;;5076286;28;20036;-71
2022/04/28 09:49:53;;;;;;;12.57;2.40;;;14.70;94.00;;;;;;5075787;28;20407;-70
2022/04/28 09:52:29;;;;;;;9.45;1.98;;;14.90;91.90;;;;;;5093562;28;20043;-70
2022/04/28 09:54:59;;;;;;;11.02;2.38;;;14.90;91.70;;;;;;5092783;28;20128;-70
2022/04/28 09:57:25;;;;;;;10.45;1.75;;;14.90;92.40;;;;;;5075816;28;20067;-70
2022/04/28 09:59:53;;;;;;;8.82;1.63;;;14.80;92.30;;;;;;5075729;28;20032;-70
2022/04/28 10:02:22;;;;;;;8.73;2.10;;;14.80;93.40;;;;;;5092797;28;20040;-70
2022/04/28 10:04:48;;;;;;;6.97;1.77;;;14.70;94.10;;;;;;5092488;28;20028;-70
2022/04/28 10:07:15;;;;;;;7.25;2.03;;;14.70;93.50;;;;;;5075658;28;20040;-70
2022/04/28 10:09:42;;;;;;;9.60;2.13;;;14.60;93.40;;;;;;5075577;28;20042;-70
2022/04/28 10:12:09;;;;;;;9.63;2.45;;;14.50;94.30;;;;;;5092438;28;20036;-70
2022/04/28 10:14:39;;;;;;;8.43;1.95;;;14.40;93.40;;;;;;5075679;28;20571;-70
2022/04/28 10:17:11;;;;;;;10.05;1.90;;;14.30;93.40;;;;;;5091934;28;20075;-70
2022/04/28 10:19:41;;;;;;;8.75;2.05;;;14.30;94.20;;;;;;5092577;28;20039;-70
2022/04/28 10:22:22;;;;;;;10.25;2.10;;;14.30;95.00;;;;;;5092525;28;20398;-70
2022/04/28 10:33:10;;;;;;;9.57;2.00;;;14.50;93.20;;;;;;5092092;28;20122;-70
2022/04/28 10:35:43;;;;;;;8.65;2.30;;;14.60;93.50;;;;;;5092529;28;20044;-70
2022/04/28 10:38:11;;;;;;;6.88;2.42;;;14.70;92.80;;;;;;5092102;28;20036;-71
2022/04/28 10:40:45;;;;;;;9.45;2.60;;;14.80;92.30;;;;;;5091990;28;20393;-70
2022/04/28 10:43:33;;;;;;;6.50;2.10;;;14.90;92.80;;;;;;5092005;28;20036;-70
2022/04/28 10:46:29;;;;;;;9.02;2.05;;;15.00;93.90;;;;;;5091550;28;20097;-70
2022/04/28 10:49:02;;;;;;;14.25;3.00;;;15.20;91.70;;;;;;5075492;28;20040;-71
2022/04/28 10:51:33;;;;;;;10.65;2.42;;;15.30;90.40;;;;;;5091876;28;20036;-70
2022/04/28 10:54:14;;;;;;;7.88;2.88;;;15.30;90.70;;;;;;5092160;28;20036;-70
2022/04/28 10:56:40;;;;;;;11.25;2.83;;;15.30;90.20;;;;;;5091862;28;20154;-70
2022/04/28 10:59:27;;;;;;;9.68;2.38;;;15.20;91.40;;;;;;5091829;28;20068;-71
2022/04/28 11:01:56;;;;;;;11.98;2.65;;;15.20;90.90;;;;;;5091823;28;20040;-70
2022/04/28 11:04:26;;;;;;;11.23;3.13;;;15.20;90.50;;;;;;5091740;28;20044;-71
2022/04/28 11:06:56;;;;;;;9.88;2.67;;;15.20;91.80;;;;;;5091763;28;20530;-71
2022/04/28 11:09:37;;;;;;;11.23;2.85;;;15.30;91.90;;;;;;5092022;28;20044;-71
2022/04/28 11:12:11;;;;;;;12.00;3.00;;;15.30;90.60;;;;;;5091660;28;20040;-71
2022/04/28 11:14:43;;;;;;;14.90;3.08;;;15.40;91.50;;;;;;5091922;28;20515;-71
2022/04/28 11:17:10;;;;;;;7.85;3.05;;;15.40;91.20;;;;;;5091658;28;20044;-68
2022/04/28 11:19:36;;;;;;;7.13;2.55;;;15.40;90.10;;;;;;5074784;28;20036;-68
2022/04/28 11:22:02;;;;;;;10.65;2.70;;;15.50;89.90;;;;;;5075028;28;20044;-69
2022/04/28 11:24:28;;;;;;;7.47;2.70;;;15.50;90.30;;;;;;5091568;28;20042;-69
2022/04/28 11:26:57;;;;;;;9.25;2.63;;;15.50;89.50;;;;;;5091577;28;20047;-69
2022/04/28 11:29:23;;;;;;;8.85;2.85;;;15.60;88.50;;;;;;5094248;28;20044;-69
2022/04/28 11:31:49;;;;;;;11.63;3.13;;;15.70;87.70;;;;;;5095071;28;20054;-69
2022/04/28 11:34:15;;;;;;;9.40;3.70;;;15.90;87.10;;;;;;5095421;28;20042;-68
2022/04/28 11:36:41;;;;;;;12.43;3.28;;;16.20;85.20;;;;;;5095282;28;20036;-70
2022/04/28 11:39:10;;;;;;;11.07;2.95;;;16.30;81.20;;;;;;5095304;28;20044;-70
2022/04/28 11:41:41;;;;;;;12.30;3.40;;;16.30;77.80;;;;;;5095466;28;20488;-69
2022/04/28 11:44:10;;;;;;;9.75;3.35;;;16.30;79.40;;;;;;5095185;28;20036;-70
2022/04/28 11:46:42;;;;;;;11.02;3.33;;;16.30;77.30;;;;;;5095032;28;20526;-70
2022/04/28 11:49:08;;;;;;;11.93;2.83;;;16.20;75.80;;;;;;5078436;28;20067;-70
2022/04/28 11:51:35;;;;;;;9.02;2.88;;;16.20;80.60;;;;;;5078140;28;20483;-70
2022/04/28 11:54:17;;;;;;;8.90;3.10;;;16.10;77.60;;;;;;5095028;28;20548;-70
2022/04/28 11:56:42;;;;;;;8.38;2.90;;;16.20;79.70;;;;;;5120074;22;20036;-72
2022/04/28 11:59:10;;;;;;;12.23;3.35;;;16.30;80.00;;;;;;5111973;28;20036;-72
2022/04/28 12:01:36;;;;;;;9.10;2.78;;;16.30;77.30;;;;;;5111864;28;20074;-72
2022/04/28 12:04:02;;;;;;;9.27;2.63;;;16.30;77.60;;;;;;5094898;28;20120;-72
2022/04/28 12:06:28;;;;;;;11.05;2.70;;;16.30;80.70;;;;;;5111996;28;20036;-72
2022/04/28 12:08:59;;;;;;;12.40;3.45;;;16.30;79.70;;;;;;5094770;28;20048;-72
2022/04/28 12:14:25;;;;;;;13.35;2.80;;;16.40;79.10;;;;;;5094901;28;20040;-72
2022/04/28 12:20:02;;;;;;;8.45;2.47;;;16.20;80.10;;;;;;5056581;28;20052;-72
2022/04/28 12:22:29;;;;;;;14.82;2.90;;;16.20;80.60;;;;;;5056660;28;20407;-72
2022/04/28 12:25:00;;;;;;;10.07;2.67;;;16.40;78.20;;;;;;5073919;28;20052;-71
2022/04/28 12:27:26;;;;;;;9.32;2.38;;;16.50;77.20;;;;;;5094422;28;20062;-72
2022/04/28 12:29:58;;;;;;;9.85;2.83;;;16.50;77.60;;;;;;5094290;28;20040;-72
2022/04/28 12:32:24;;;;;;;14.20;2.72;;;16.40;76.80;;;;;;5094584;28;20040;-72
2022/04/28 12:35:00;;;;;;;12.10;2.90;;;16.40;78.50;;;;;;5094187;28;20399;-72
2022/04/28 12:37:27;;;;;;;11.43;2.50;;;16.30;79.80;;;;;;5094184;28;20051;-72
2022/04/28 12:40:02;;;;;;;11.88;2.42;;;16.30;82.20;;;;;;5093916;28;20036;-72
2022/04/28 12:42:43;;;;;;;10.52;2.60;;;16.30;81.40;;;;;;5094152;28;20495;-72
2022/04/28 12:45:09;;;;;;;8.75;2.30;;;16.20;78.10;;;;;;5094001;28;20040;-71
2022/04/28 12:47:36;;;;;;;9.98;2.80;;;16.30;79.50;;;;;;5094004;28;20063;-71
2022/04/28 12:50:17;;;;;;;12.15;2.92;;;16.50;78.60;;;;;;5093878;28;20040;-71
2022/04/28 12:52:43;;;;;;;9.45;2.83;;;16.50;76.40;;;;;;5077320;28;20032;-72
2022/04/28 12:55:09;;;;;;;6.78;2.40;;;16.80;77.10;;;;;;5093631;28;20032;-72
2022/04/28 12:57:35;;;;;;;10.85;2.22;;;16.80;72.90;;;;;;5076991;28;20123;-71
2022/04/28 13:00:03;;;;;;;10.77;2.17;;;16.80;73.30;;;;;;5093739;28;20032;-71
2022/04/28 13:02:30;;;;;;;9.00;2.42;;;16.80;75.30;;;;;;5077117;28;20040;-72
2022/04/28 13:05:12;;;;;;;8.73;2.30;;;16.70;73.00;;;;;;5093582;28;20403;-72
2022/04/28 13:07:39;;;;;;;11.68;2.88;;;16.70;73.90;;;;;;5077022;28;20038;-71
2022/04/28 13:10:05;;;;;;;9.32;2.35;;;16.70;74.60;;;;;;5093446;28;20044;-71
2022/04/28 13:12:31;;;;;;;15.70;2.67;;;16.70;73.00;;;;;;5093443;28;20042;-71
2022/04/28 13:14:58;;;;;;;11.07;2.47;;;16.80;72.30;;;;;;5093376;28;20040;-71
2022/04/28 13:17:24;;;;;;;11.70;2.42;;;17.00;73.10;;;;;;5093670;28;20044;-71
2022/04/28 13:19:50;;;;;;;8.55;2.20;;;17.10;71.70;;;;;;5076480;28;20523;-71
2022/04/28 13:22:15;;;;;;;10.75;1.95;;;17.10;70.10;;;;;;5093312;28;20036;-71
2022/04/28 13:24:41;;;;;;;12.25;2.80;;;17.10;70.10;;;;;;5093266;28;20028;-72